Time;durP1;ratioP1;P1;durP2;ratioP2;P2;SDS_P1;SDS_P2;PMS_P1;PMS_P2;Temp;Humidity;BMP_temperature;BMP_pressure;BME280_temperature;BME280_humidity;BME280_pressure;Samples;Min_cycle;Max_cycle;Signal;HPM_P1;HPM_P2
2022/03/30 00:02:08;;;;;;;21.48;15.85;;;384.60;1228.80;;;;;;4991119;28;20121;-78
2022/03/30 00:04:36;;;;;;;23.88;15.57;;;384.60;1254.40;;;;;;4983327;28;20037;-79
2022/03/30 00:07:03;;;;;;;22.05;15.73;;;384.50;1254.40;;;;;;4983580;28;20430;-79
2022/03/30 00:09:29;;;;;;;21.73;15.30;;;384.50;1254.40;;;;;;5001652;28;20018;-78
2022/03/30 00:11:56;;;;;;;18.63;14.50;;;384.50;1254.40;;;;;;4988365;28;20054;-79
2022/03/30 00:14:22;;;;;;;19.23;14.63;;;384.50;1254.40;;;;;;4984813;28;20061;-79
2022/03/30 00:16:48;;;;;;;21.17;14.82;;;384.50;1254.40;;;;;;4981484;28;20117;-78
2022/03/30 00:19:14;;;;;;;20.95;15.30;;;384.50;1254.40;;;;;;4982089;28;20516;-78
2022/03/30 00:21:40;;;;;;;19.05;13.95;;;384.50;1254.40;;;;;;4982382;28;20095;-77
2022/03/30 00:24:06;;;;;;;19.52;13.18;;;384.60;1254.40;;;;;;5002099;28;20076;-78
2022/03/30 00:26:31;;;;;;;17.40;14.35;;;384.60;1254.40;;;;;;4987737;28;20027;-77
2022/03/30 00:28:57;;;;;;;19.85;13.20;;;384.60;1280.00;;;;;;4981991;28;20018;-77
2022/03/30 00:31:23;;;;;;;22.05;13.68;;;384.70;1254.40;;;;;;4982221;28;20019;-76
2022/03/30 00:33:51;;;;;;;21.52;13.20;;;384.70;1280.00;;;;;;5001660;28;20029;-77
2022/03/30 00:36:17;;;;;;;17.20;13.02;;;384.70;1280.00;;;;;;4985213;28;20467;-78
2022/03/30 00:38:43;;;;;;;23.40;13.55;;;384.70;1280.00;;;;;;5003063;28;20125;-78
2022/03/30 00:41:09;;;;;;;20.38;13.23;;;384.70;1280.00;;;;;;4990437;28;20124;-78
2022/03/30 00:43:35;;;;;;;19.80;12.70;;;384.70;1280.00;;;;;;4989955;28;20506;-76
2022/03/30 00:46:01;;;;;;;23.25;14.88;;;384.70;1280.00;;;;;;4981791;28;20038;-75
2022/03/30 00:48:27;;;;;;;19.42;12.30;;;384.60;1280.00;;;;;;5001704;28;20727;-77
2022/03/30 00:50:53;;;;;;;17.45;13.32;;;384.60;1280.00;;;;;;4984351;28;20034;-77
2022/03/30 00:53:19;;;;;;;18.95;13.45;;;384.50;1280.00;;;;;;4987944;28;20022;-77
2022/03/30 00:55:45;;;;;;;17.40;13.93;;;384.50;1280.00;;;;;;4982989;28;20034;-77
2022/03/30 00:58:11;;;;;;;25.17;13.43;;;384.50;1280.00;;;;;;4989292;28;20030;-77
2022/03/30 01:00:37;;;;;;;22.02;15.52;;;384.50;1280.00;;;;;;4982212;28;20022;-76
2022/03/30 01:03:03;;;;;;;20.88;14.20;;;384.40;1280.00;;;;;;4986242;28;20141;-77
2022/03/30 01:05:29;;;;;;;25.00;14.27;;;384.40;1305.60;;;;;;4980887;28;20550;-78
2022/03/30 01:07:58;;;;;;;21.35;13.60;;;384.20;1305.60;;;;;;4986981;28;20040;-77
2022/03/30 01:10:24;;;;;;;20.30;14.65;;;384.30;1305.60;;;;;;4997046;28;20782;-77
2022/03/30 01:12:52;;;;;;;22.77;13.25;;;384.20;1305.60;;;;;;5000586;28;20029;-76
2022/03/30 01:15:20;;;;;;;19.48;13.52;;;384.10;1305.60;;;;;;5008082;28;20058;-78
2022/03/30 01:17:46;;;;;;;21.77;14.75;;;384.00;1331.20;;;;;;5000700;28;20054;-76
2022/03/30 01:20:15;;;;;;;18.98;13.13;;;359.30;1331.20;;;;;;4984346;28;20026;-78
2022/03/30 01:22:41;;;;;;;26.20;13.85;;;359.20;1356.80;;;;;;5001044;28;20034;-77
2022/03/30 01:25:07;;;;;;;24.52;15.32;;;359.10;1356.80;;;;;;4983101;28;20034;-76
2022/03/30 01:27:33;;;;;;;16.67;13.40;;;359.00;1356.80;;;;;;4985101;28;20038;-76
2022/03/30 01:32:57;;;;;;;19.20;14.10;;;358.80;1382.40;;;;;;5005941;28;20087;-76
2022/03/30 01:35:23;;;;;;;20.35;14.88;;;358.80;1382.40;;;;;;5000845;28;20064;-77
2022/03/30 01:37:49;;;;;;;23.02;14.73;;;358.70;1382.40;;;;;;4986718;28;20062;-76
2022/03/30 01:40:15;;;;;;;20.88;14.27;;;358.60;1382.40;;;;;;4985264;28;20088;-76
2022/03/30 01:42:41;;;;;;;17.77;13.38;;;358.50;1408.00;;;;;;5003375;28;20047;-76
2022/03/30 01:45:11;;;;;;;24.17;14.63;;;358.40;1408.00;;;;;;4990903;28;20085;-77
2022/03/30 01:47:39;;;;;;;28.08;15.63;;;333.70;1433.60;;;;;;4984908;28;20068;-76
2022/03/30 01:50:05;;;;;;;24.88;16.50;;;333.70;1433.60;;;;;;4988693;28;20030;-76
2022/03/30 01:52:31;;;;;;;26.60;16.90;;;333.60;1433.60;;;;;;4988408;28;20115;-76
2022/03/30 01:54:57;;;;;;;23.88;16.80;;;333.50;1433.60;;;;;;4987173;28;20486;-75
2022/03/30 01:57:23;;;;;;;27.58;17.23;;;333.50;1459.20;;;;;;5006505;28;20413;-75
2022/03/30 01:59:49;;;;;;;24.13;16.50;;;333.40;1459.20;;;;;;4986490;28;20030;-75
2022/03/30 02:02:15;;;;;;;25.65;16.40;;;333.40;1459.20;;;;;;4987389;28;20133;-75
2022/03/30 02:04:42;;;;;;;23.88;15.35;;;333.30;1459.20;;;;;;4984225;28;20042;-76
2022/03/30 02:07:09;;;;;;;24.02;16.85;;;333.30;1459.20;;;;;;5003977;28;20030;-76
2022/03/30 02:09:35;;;;;;;24.58;16.92;;;333.30;1484.80;;;;;;4986171;28;20146;-75
2022/03/30 02:12:02;;;;;;;27.42;17.25;;;333.20;1484.80;;;;;;4988904;28;20137;-76
2022/03/30 02:14:28;;;;;;;25.23;15.95;;;333.10;1484.80;;;;;;4984934;28;20080;-75
2022/03/30 02:16:54;;;;;;;23.77;16.38;;;333.00;1484.80;;;;;;5006068;28;20022;-75
2022/03/30 02:19:19;;;;;;;20.40;14.95;;;332.90;1510.40;;;;;;5007597;28;20502;-75
2022/03/30 02:21:45;;;;;;;22.25;14.75;;;332.90;1510.40;;;;;;4988088;28;20033;-76
2022/03/30 02:24:11;;;;;;;24.23;16.05;;;332.90;1536.00;;;;;;5005635;28;20066;-76
2022/03/30 02:26:37;;;;;;;22.42;14.55;;;333.00;1536.00;;;;;;4986916;28;20037;-76
2022/03/30 02:29:03;;;;;;;24.65;14.43;;;332.90;1561.60;;;;;;5001806;28;20031;-76
2022/03/30 02:31:29;;;;;;;22.33;15.95;;;332.80;1561.60;;;;;;4988614;28;20113;-76
2022/03/30 02:33:54;;;;;;;22.80;15.80;;;308.00;1561.60;;;;;;4986244;28;20018;-76
2022/03/30 02:36:20;;;;;;;26.40;15.52;;;308.00;1561.60;;;;;;5004061;28;20501;-76
2022/03/30 02:38:47;;;;;;;23.73;15.73;;;307.90;1561.60;;;;;;5001465;28;20040;-76
2022/03/30 02:41:12;;;;;;;28.42;17.15;;;307.90;1587.20;;;;;;4985142;28;20117;-78
2022/03/30 02:43:39;;;;;;;23.83;19.10;;;307.80;1587.20;;;;;;4988521;28;20173;-76
2022/03/30 02:46:04;;;;;;;37.25;22.55;;;307.80;1587.20;;;;;;4991218;28;20030;-79
2022/03/30 02:48:32;;;;;;;29.25;19.15;;;307.70;1587.20;;;;;;4990390;28;20026;-76
2022/03/30 02:51:02;;;;;;;29.30;17.35;;;307.70;1587.20;;;;;;4991176;28;20026;-79
2022/03/30 02:53:28;;;;;;;24.40;16.08;;;307.80;1587.20;;;;;;5005951;28;20018;-80
2022/03/30 02:55:54;;;;;;;20.98;14.07;;;307.60;1587.20;;;;;;5004230;28;20026;-79
2022/03/30 02:58:20;;;;;;;27.17;15.50;;;307.90;1587.20;;;;;;4991358;28;20399;-80
2022/03/30 03:00:46;;;;;;;28.63;15.25;;;307.90;1587.20;;;;;;5006114;28;20066;-77
2022/03/30 03:03:12;;;;;;;25.05;14.73;;;308.00;1587.20;;;;;;5002759;28;20050;-81
2022/03/30 03:05:39;;;;;;;22.50;13.55;;;308.00;1587.20;;;;;;4983826;28;20030;-80
2022/03/30 03:08:06;;;;;;;30.02;13.88;;;308.00;1587.20;;;;;;4992983;28;20065;-80
2022/03/30 03:10:35;;;;;;;29.52;14.27;;;308.10;1587.20;;;;;;5003038;28;20055;-79
2022/03/30 03:13:03;;;;;;;28.40;15.55;;;308.10;1587.20;;;;;;4987472;28;20046;-80
2022/03/30 03:15:30;;;;;;;25.13;15.50;;;308.10;1587.20;;;;;;5007869;28;20030;-80
2022/03/30 03:17:57;;;;;;;25.88;14.93;;;308.10;1587.20;;;;;;4982375;28;20030;-81
2022/03/30 03:20:24;;;;;;;20.63;13.25;;;332.80;1612.80;;;;;;5005365;28;20056;-78
2022/03/30 03:22:49;;;;;;;27.77;14.52;;;332.80;1612.80;;;;;;5012465;28;20036;-81
2022/03/30 03:25:15;;;;;;;18.63;13.00;;;332.80;1612.80;;;;;;5011669;28;20034;-79
2022/03/30 03:27:41;;;;;;;23.42;15.38;;;332.80;1612.80;;;;;;5003669;28;20509;-80
2022/03/30 03:30:08;;;;;;;20.58;12.25;;;332.80;1612.80;;;;;;4990670;28;20125;-79
2022/03/30 03:32:34;;;;;;;24.40;11.90;;;308.10;1612.80;;;;;;4975163;28;20035;-79
2022/03/30 03:35:00;;;;;;;23.00;12.45;;;308.10;1612.80;;;;;;4973874;28;20125;-78
2022/03/30 03:37:25;;;;;;;22.63;11.15;;;308.10;1612.80;;;;;;4992719;28;20794;-80
2022/03/30 03:39:51;;;;;;;19.70;12.75;;;308.10;1612.80;;;;;;4989936;28;20050;-81
2022/03/30 03:42:17;;;;;;;22.58;14.75;;;308.10;1612.80;;;;;;4996914;28;20026;-79
2022/03/30 03:44:44;;;;;;;24.38;13.40;;;308.10;1638.40;;;;;;5010613;28;20026;-79
2022/03/30 03:47:09;;;;;;;20.88;12.85;;;308.10;1638.40;;;;;;4991946;28;20050;-77
2022/03/30 03:49:39;;;;;;;21.08;11.90;;;308.10;1638.40;;;;;;4991589;28;20053;-80
2022/03/30 03:52:06;;;;;;;20.92;11.95;;;308.10;1664.00;;;;;;4974498;28;20035;-81
2022/03/30 03:54:32;;;;;;;25.10;13.25;;;308.00;1689.60;;;;;;4990497;28;20067;-81
2022/03/30 03:56:57;;;;;;;22.85;12.93;;;308.00;1689.60;;;;;;4990230;28;20035;-79
2022/03/30 03:59:24;;;;;;;27.05;13.55;;;308.00;1715.20;;;;;;4974443;28;20180;-78
2022/03/30 04:01:50;;;;;;;18.77;12.13;;;307.90;1715.20;;;;;;4974437;28;20479;-79
2022/03/30 04:04:16;;;;;;;25.55;13.02;;;307.90;1715.20;;;;;;4991812;28;20031;-81
2022/03/30 04:06:42;;;;;;;29.60;14.80;;;307.90;1715.20;;;;;;4991640;28;20030;-77
2022/03/30 04:09:08;;;;;;;24.23;14.10;;;307.90;1715.20;;;;;;4975638;28;20109;-78
2022/03/30 04:11:34;;;;;;;22.88;14.32;;;307.90;1740.80;;;;;;4991451;28;20074;-80
2022/03/30 04:14:00;;;;;;;26.88;15.55;;;307.90;1740.80;;;;;;4991582;28;20541;-79
2022/03/30 04:16:26;;;;;;;26.13;15.50;;;307.90;1740.80;;;;;;4994063;28;20041;-78
2022/03/30 04:18:51;;;;;;;25.10;15.02;;;307.90;1715.20;;;;;;4992868;28;20057;-78
2022/03/30 04:21:17;;;;;;;20.02;14.90;;;307.90;1715.20;;;;;;4994183;28;20502;-79
2022/03/30 04:23:44;;;;;;;28.38;16.15;;;307.80;1740.80;;;;;;5002143;28;20038;-79
2022/03/30 04:26:10;;;;;;;24.90;12.93;;;307.80;1740.80;;;;;;4974444;28;20459;-79
2022/03/30 04:28:40;;;;;;;25.35;15.18;;;307.80;1740.80;;;;;;5000759;28;20109;-78
2022/03/30 04:31:13;;;;;;;31.38;15.15;;;307.70;1740.80;;;;;;4993791;28;20045;-81
2022/03/30 04:33:39;;;;;;;25.17;14.38;;;307.70;1740.80;;;;;;4982984;28;20054;-80
2022/03/30 04:36:06;;;;;;;22.73;13.50;;;307.70;1766.40;;;;;;4991087;28;20451;-78
2022/03/30 04:38:33;;;;;;;26.55;15.20;;;307.70;1766.40;;;;;;4989668;28;20045;-81
2022/03/30 04:41:00;;;;;;;19.95;13.70;;;307.60;1766.40;;;;;;4993456;28;20507;-84
2022/03/30 04:43:27;;;;;;;24.10;14.18;;;307.70;1766.40;;;;;;4989979;28;20482;-81
2022/03/30 04:45:54;;;;;;;22.67;14.30;;;307.70;1766.40;;;;;;5010454;28;20406;-79
2022/03/30 04:48:22;;;;;;;32.13;15.88;;;307.70;1766.40;;;;;;4993650;28;20030;-78
2022/03/30 04:50:49;;;;;;;29.27;15.20;;;307.70;1766.40;;;;;;4993073;28;20129;-77
2022/03/30 04:53:14;;;;;;;25.20;15.98;;;307.70;1766.40;;;;;;4993769;28;20026;-77
2022/03/30 04:55:40;;;;;;;32.28;16.80;;;307.70;1766.40;;;;;;5010834;28;20022;-78
2022/03/30 04:58:06;;;;;;;31.30;16.27;;;307.70;1792.00;;;;;;4993148;28;20048;-78
2022/03/30 05:00:32;;;;;;;27.77;16.45;;;307.70;1792.00;;;;;;5011419;28;20030;-77
2022/03/30 05:02:58;;;;;;;25.13;15.95;;;307.70;1792.00;;;;;;4996066;28;20073;-78
2022/03/30 05:05:24;;;;;;;28.88;15.60;;;307.80;1792.00;;;;;;5008448;28;20387;-79
2022/03/30 05:07:50;;;;;;;39.60;18.08;;;307.80;1792.00;;;;;;4976919;28;20033;-78
2022/03/30 05:10:16;;;;;;;28.42;16.77;;;307.90;1792.00;;;;;;4974680;28;20053;-78
2022/03/30 05:12:42;;;;;;;31.75;17.63;;;307.90;1792.00;;;;;;4980799;28;20380;-78
2022/03/30 05:15:10;;;;;;;29.75;18.00;;;308.00;1792.00;;;;;;4995038;28;20053;-79
2022/03/30 05:17:40;;;;;;;32.13;17.75;;;308.00;1792.00;;;;;;4992950;28;20030;-77
2022/03/30 05:20:06;;;;;;;29.38;17.85;;;332.80;1792.00;;;;;;4981127;28;20121;-78
2022/03/30 05:22:33;;;;;;;34.10;17.95;;;332.90;1766.40;;;;;;4978941;28;20038;-78
2022/03/30 05:25:00;;;;;;;31.52;17.33;;;333.00;1766.40;;;;;;4977271;28;20026;-78
2022/03/30 05:27:26;;;;;;;27.35;17.58;;;333.00;1766.40;;;;;;4993027;28;20053;-80
2022/03/30 05:29:51;;;;;;;27.10;15.25;;;333.00;1766.40;;;;;;4993663;28;20018;-81
2022/03/30 05:32:17;;;;;;;29.02;16.50;;;333.10;1766.40;;;;;;4994802;28;20391;-80
2022/03/30 05:34:43;;;;;;;27.48;16.95;;;333.20;1740.80;;;;;;4994225;28;20087;-79
2022/03/30 05:37:10;;;;;;;27.52;19.30;;;333.30;1740.80;;;;;;4993612;28;20748;-79
2022/03/30 05:39:39;;;;;;;27.35;17.02;;;333.40;1740.80;;;;;;4993977;28;20031;-80
2022/03/30 05:42:05;;;;;;;28.88;16.50;;;333.50;1715.20;;;;;;4991007;28;20027;-80
2022/03/30 05:44:32;;;;;;;26.83;15.85;;;333.50;1715.20;;;;;;4986373;28;20042;-78
2022/03/30 05:46:57;;;;;;;26.52;16.33;;;333.70;1715.20;;;;;;4980404;28;20046;-79
2022/03/30 05:49:24;;;;;;;28.08;16.02;;;333.70;1689.60;;;;;;4984008;28;20026;-79
2022/03/30 05:51:50;;;;;;;25.35;16.67;;;358.40;1689.60;;;;;;4986881;28;20026;-78
2022/03/30 05:54:16;;;;;;;28.27;17.00;;;358.50;1689.60;;;;;;4984197;28;20046;-78
2022/03/30 05:57:00;;;;;;;28.77;17.02;;;358.60;1689.60;;;;;;4980132;28;20043;-78
2022/03/30 05:59:34;;;;;;;32.75;23.33;;;358.70;1689.60;;;;;;4985733;28;20027;-79
2022/03/30 06:02:01;;;;;;;36.75;20.45;;;358.80;1689.60;;;;;;4988142;28;20022;-78
2022/03/30 06:04:27;;;;;;;38.28;22.25;;;359.00;1689.60;;;;;;4976227;28;20023;-79
2022/03/30 06:06:54;;;;;;;31.90;21.55;;;359.10;1689.60;;;;;;4973328;28;20114;-78
2022/03/30 06:09:20;;;;;;;34.45;20.15;;;359.00;1689.60;;;;;;4972956;28;20031;-78
2022/03/30 06:11:47;;;;;;;37.08;19.88;;;359.30;1689.60;;;;;;4972614;28;20049;-76
2022/03/30 06:14:14;;;;;;;31.77;20.70;;;359.30;1664.00;;;;;;4991876;28;20117;-77
2022/03/30 06:16:41;;;;;;;33.10;20.25;;;384.10;1664.00;;;;;;4993208;28;20022;-76
2022/03/30 06:19:09;;;;;;;32.40;19.70;;;384.30;1638.40;;;;;;5013082;28;20423;-74
2022/03/30 06:21:35;;;;;;;28.75;19.48;;;384.50;1638.40;;;;;;4995674;28;20098;-75
2022/03/30 06:24:01;;;;;;;33.88;20.42;;;384.50;1612.80;;;;;;4992699;28;20120;-75
2022/03/30 06:26:27;;;;;;;32.78;21.58;;;384.60;1612.80;;;;;;5012613;28;20034;-76
2022/03/30 06:28:53;;;;;;;34.63;20.98;;;384.90;1587.20;;;;;;4993864;28;20117;-75
2022/03/30 06:31:19;;;;;;;34.03;20.15;;;409.70;1587.20;;;;;;4998562;28;20084;-78
2022/03/30 06:33:46;;;;;;;41.35;20.27;;;409.90;1587.20;;;;;;4995077;28;20026;-75
2022/03/30 06:36:12;;;;;;;35.40;19.80;;;410.10;1561.60;;;;;;5012327;28;20038;-76
2022/03/30 06:38:38;;;;;;;38.75;20.98;;;410.30;1536.00;;;;;;5013468;28;20530;-76
2022/03/30 06:41:07;;;;;;;27.58;17.52;;;410.40;1536.00;;;;;;4995043;28;20030;-80
2022/03/30 06:43:33;;;;;;;33.20;17.48;;;410.30;1536.00;;;;;;4989548;28;20053;-79
2022/03/30 06:45:59;;;;;;;29.60;17.27;;;410.40;1510.40;;;;;;4995181;28;20529;-79
2022/03/30 06:48:25;;;;;;;33.25;17.25;;;435.20;1510.40;;;;;;4994588;28;20034;-79
2022/03/30 06:50:52;;;;;;;28.40;16.40;;;435.20;1510.40;;;;;;4995137;28;20520;-77
2022/03/30 06:53:18;;;;;;;30.17;16.42;;;435.40;1510.40;;;;;;5009126;28;20026;-77
2022/03/30 06:55:43;;;;;;;26.40;16.25;;;435.50;1510.40;;;;;;5004356;28;20030;-77
2022/03/30 06:58:09;;;;;;;32.72;17.15;;;435.60;1510.40;;;;;;4995986;28;20403;-81
2022/03/30 07:00:35;;;;;;;29.48;15.90;;;435.80;1484.80;;;;;;4992905;28;20026;-81
2022/03/30 07:03:01;;;;;;;26.73;15.88;;;435.80;1484.80;;;;;;4983130;28;20470;-82
2022/03/30 07:05:28;;;;;;;28.00;16.35;;;436.00;1459.20;;;;;;4987178;28;20046;-82
2022/03/30 07:10:38;;;;;;;30.83;16.52;;;461.00;1484.80;;;;;;4996619;28;20048;-80
2022/03/30 07:13:06;;;;;;;32.50;17.85;;;461.30;1484.80;;;;;;4990403;28;20033;-80
2022/03/30 07:15:32;;;;;;;35.08;16.13;;;461.30;1459.20;;;;;;4999883;28;20450;-80
2022/03/30 07:17:58;;;;;;;23.75;14.95;;;461.30;1459.20;;;;;;5004324;28;20029;-79
2022/03/30 07:20:26;;;;;;;29.42;16.27;;;461.40;1459.20;;;;;;4981324;28;20141;-79
2022/03/30 07:22:52;;;;;;;30.60;15.13;;;461.70;1433.60;;;;;;4990942;28;20040;-79
2022/03/30 07:25:21;;;;;;;27.63;16.90;;;461.60;1433.60;;;;;;4976244;28;20041;-80
2022/03/30 07:27:49;;;;;;;26.80;15.48;;;486.40;1433.60;;;;;;4992188;28;20029;-80
2022/03/30 07:30:16;;;;;;;21.25;12.38;;;486.60;1433.60;;;;;;4992018;28;20022;-79
2022/03/30 07:32:45;;;;;;;25.77;11.25;;;486.40;1382.40;;;;;;4987271;28;20030;-79
2022/03/30 07:35:13;;;;;;;20.83;8.93;;;461.60;1382.40;;;;;;4986328;28;20061;-80
2022/03/30 07:37:40;;;;;;;19.77;9.90;;;486.40;1356.80;;;;;;5004933;28;20093;-78
2022/03/30 07:40:08;;;;;;;23.38;10.13;;;486.40;1331.20;;;;;;4987320;28;20473;-79
2022/03/30 07:42:34;;;;;;;23.30;11.32;;;486.60;1331.20;;;;;;5001274;28;20034;-78
2022/03/30 07:45:00;;;;;;;26.83;10.45;;;486.40;1331.20;;;;;;4999872;28;20037;-77
2022/03/30 07:47:26;;;;;;;21.10;9.20;;;486.50;1305.60;;;;;;4984838;28;20106;-79
2022/03/30 07:49:53;;;;;;;18.17;10.20;;;487.00;1305.60;;;;;;5003920;28;20109;-78
2022/03/30 07:52:20;;;;;;;26.35;10.80;;;487.10;1280.00;;;;;;4991413;28;20056;-76
2022/03/30 07:54:47;;;;;;;27.77;12.68;;;487.30;1280.00;;;;;;4983712;28;20160;-81
2022/03/30 07:57:13;;;;;;;19.85;9.82;;;487.30;1280.00;;;;;;4981053;28;20026;-80
2022/03/30 07:59:39;;;;;;;23.88;9.40;;;512.20;1280.00;;;;;;4999826;28;20030;-80
2022/03/30 08:02:05;;;;;;;28.52;9.55;;;512.40;1254.40;;;;;;4980075;28;20076;-79
2022/03/30 08:04:31;;;;;;;24.17;11.23;;;512.60;1254.40;;;;;;4982879;28;20042;-80
2022/03/30 08:06:57;;;;;;;20.50;10.75;;;512.60;1254.40;;;;;;4987568;28;20172;-79
2022/03/30 09:59:28;;;;;;;16.42;7.53;;;563.60;1177.60;;;;;;5226159;22;20121;-75
2022/03/30 10:01:56;;;;;;;18.05;7.40;;;563.30;1177.60;;;;;;5007299;28;20041;-73
2022/03/30 10:04:22;;;;;;;21.13;8.73;;;563.50;1177.60;;;;;;4994015;28;20038;-74
2022/03/30 10:06:48;;;;;;;23.17;9.00;;;563.70;1177.60;;;;;;5005893;28;20085;-76
2022/03/30 10:09:16;;;;;;;30.95;9.15;;;563.70;1177.60;;;;;;5013233;28;20593;-77
2022/03/30 10:11:44;;;;;;;24.52;8.80;;;563.90;1152.00;;;;;;4994137;28;20030;-75
2022/03/30 10:14:11;;;;;;;21.55;8.43;;;563.90;1152.00;;;;;;5008797;28;20041;-72
2022/03/30 10:16:36;;;;;;;15.10;7.85;;;564.00;1152.00;;;;;;4994708;28;20038;-72
2022/03/30 10:19:02;;;;;;;19.75;9.30;;;563.90;1152.00;;;;;;5012091;28;20038;-72
2022/03/30 10:21:36;;;;;;;19.42;10.25;;;588.80;1152.00;;;;;;5009415;28;20843;-72
2022/03/30 10:24:51;;;;;;;17.17;8.55;;;564.10;1152.00;;;;;;4994663;28;20044;-73
2022/03/30 10:27:39;;;;;;;15.20;7.85;;;588.90;1152.00;;;;;;4951118;29;20047;-74
2022/03/30 10:30:07;;;;;;;20.52;9.77;;;564.00;1152.00;;;;;;4951143;28;20411;-74
2022/03/30 10:32:35;;;;;;;17.77;8.32;;;564.10;1152.00;;;;;;4934542;29;20043;-74
2022/03/30 10:35:08;;;;;;;18.25;7.60;;;564.00;1152.00;;;;;;4950082;29;20094;-73
2022/03/30 10:37:40;;;;;;;15.63;8.70;;;589.10;1152.00;;;;;;4950810;29;20032;-72
2022/03/30 10:40:17;;;;;;;15.63;7.95;;;589.20;1126.40;;;;;;4933670;29;20035;-72
2022/03/30 10:42:46;;;;;;;18.13;8.65;;;589.30;1126.40;;;;;;4950800;29;20046;-74
2022/03/30 10:45:30;;;;;;;22.80;8.85;;;589.20;1126.40;;;;;;4947169;29;20399;-72
2022/03/30 10:48:11;;;;;;;21.17;8.90;;;564.10;1126.40;;;;;;4949005;29;20122;-73
2022/03/30 10:50:42;;;;;;;19.30;8.23;;;588.80;1152.00;;;;;;4950744;29;20035;-74
2022/03/30 10:53:32;;;;;;;14.63;8.93;;;588.90;1152.00;;;;;;4932031;29;20119;-74
2022/03/30 10:56:15;;;;;;;17.35;8.55;;;588.80;1126.40;;;;;;4932320;29;20094;-74
2022/03/30 10:58:52;;;;;;;14.32;8.75;;;589.00;1126.40;;;;;;4945729;28;20508;-73
2022/03/30 11:01:24;;;;;;;19.05;8.13;;;589.30;1126.40;;;;;;4932023;29;20519;-74
2022/03/30 11:04:00;;;;;;;18.85;8.20;;;589.40;1100.80;;;;;;4981365;28;20486;-75
2022/03/30 11:06:27;;;;;;;22.35;8.48;;;589.70;1100.80;;;;;;5011465;28;20092;-75
2022/03/30 11:09:05;;;;;;;16.25;8.80;;;614.80;1100.80;;;;;;5011323;28;20479;-75
2022/03/30 11:11:43;;;;;;;18.30;9.00;;;615.10;1075.20;;;;;;5001331;28;20030;-75
2022/03/30 11:14:25;;;;;;;16.35;7.45;;;640.10;1024.00;;;;;;4985349;28;20041;-75
2022/03/30 11:16:57;;;;;;;21.30;7.88;;;615.00;1049.60;;;;;;5003843;28;20057;-75
2022/03/30 11:19:31;;;;;;;17.23;9.27;;;615.10;1049.60;;;;;;5011213;28;20038;-75
2022/03/30 11:22:14;;;;;;;23.77;8.65;;;615.20;1049.60;;;;;;4994056;28;20034;-75
2022/03/30 11:24:42;;;;;;;19.95;8.52;;;615.30;1075.20;;;;;;5003229;28;20057;-75
2022/03/30 11:27:08;;;;;;;25.80;9.85;;;614.90;1075.20;;;;;;4987788;28;20394;-75
2022/03/30 11:29:50;;;;;;;20.13;7.47;;;614.70;1100.80;;;;;;4993592;28;20049;-75
2022/03/30 11:32:32;;;;;;;20.45;8.90;;;614.50;1100.80;;;;;;4993812;28;20037;-75
2022/03/30 11:35:03;;;;;;;28.85;9.52;;;589.70;1100.80;;;;;;4993795;28;20034;-74
2022/03/30 11:37:33;;;;;;;17.30;8.68;;;614.80;1100.80;;;;;;4986102;28;20112;-74
2022/03/30 11:40:09;;;;;;;15.43;7.47;;;615.30;1075.20;;;;;;4985707;28;20093;-74
2022/03/30 11:42:37;;;;;;;19.17;7.68;;;640.10;1049.60;;;;;;4993075;28;20038;-74
2022/03/30 11:45:13;;;;;;;13.15;7.65;;;640.00;1049.60;;;;;;4993208;28;20034;-75
2022/03/30 11:47:45;;;;;;;24.77;8.88;;;615.20;1049.60;;;;;;4995189;28;20041;-76
2022/03/30 11:50:17;;;;;;;12.25;8.13;;;614.90;1075.20;;;;;;5002183;28;20062;-77
2022/03/30 11:52:52;;;;;;;15.10;7.22;;;614.50;1075.20;;;;;;4994670;28;20373;-77
2022/03/30 11:55:17;;;;;;;16.20;8.50;;;614.90;1075.20;;;;;;4998443;28;20505;-77
2022/03/30 11:57:43;;;;;;;15.63;7.75;;;615.00;1075.20;;;;;;5011126;28;20069;-76
2022/03/30 12:00:11;;;;;;;18.52;9.52;;;615.30;1049.60;;;;;;5011429;28;20041;-76
2022/03/30 12:02:38;;;;;;;19.85;9.80;;;640.10;1024.00;;;;;;4994591;28;20038;-76
2022/03/30 12:05:06;;;;;;;16.25;8.68;;;640.00;1024.00;;;;;;5010507;28;20436;-77
2022/03/30 12:07:35;;;;;;;17.02;8.48;;;614.60;1049.60;;;;;;5010973;28;20061;-76
2022/03/30 12:10:02;;;;;;;17.50;7.57;;;614.90;1049.60;;;;;;4992155;28;20088;-77
2022/03/30 12:12:37;;;;;;;25.60;8.77;;;615.10;1049.60;;;;;;4994159;28;20041;-76
2022/03/30 12:15:16;;;;;;;14.88;7.90;;;615.10;1049.60;;;;;;4992836;28;20033;-76
2022/03/30 12:17:42;;;;;;;20.17;9.63;;;615.00;1024.00;;;;;;4992939;28;20053;-77
2022/03/30 12:20:09;;;;;;;25.30;9.25;;;640.00;1024.00;;;;;;5011367;28;20492;-76
2022/03/30 12:22:37;;;;;;;18.00;8.00;;;615.20;1024.00;;;;;;4989911;28;20046;-77
2022/03/30 12:25:16;;;;;;;14.35;8.05;;;640.30;998.40;;;;;;4993204;28;20103;-77
2022/03/30 12:27:42;;;;;;;15.80;8.88;;;615.30;1024.00;;;;;;4990558;28;20061;-76
2022/03/30 12:30:08;;;;;;;16.15;9.40;;;640.40;998.40;;;;;;4990496;28;20507;-77
2022/03/30 12:32:34;;;;;;;21.38;8.65;;;640.20;1024.00;;;;;;4993752;28;20041;-78
2022/03/30 12:35:12;;;;;;;12.40;8.38;;;640.10;1049.60;;;;;;4992458;28;20402;-76
2022/03/30 12:37:41;;;;;;;18.40;8.13;;;615.20;1024.00;;;;;;5004508;28;20045;-77
2022/03/30 12:40:17;;;;;;;20.63;9.43;;;615.20;1024.00;;;;;;4992608;28;20034;-76
2022/03/30 12:42:46;;;;;;;18.67;8.38;;;615.30;1024.00;;;;;;5001069;28;20054;-77
2022/03/30 12:45:15;;;;;;;18.98;7.63;;;640.20;1024.00;;;;;;5007078;28;20022;-76
2022/03/30 12:47:54;;;;;;;18.23;8.25;;;615.10;1024.00;;;;;;4992571;28;20089;-76
2022/03/30 12:50:33;;;;;;;15.13;8.48;;;614.90;1049.60;;;;;;4991393;28;20120;-77
2022/03/30 12:53:16;;;;;;;15.63;7.55;;;614.60;1049.60;;;;;;5005193;28;20371;-76
2022/03/30 12:55:45;;;;;;;15.80;8.48;;;614.70;1075.20;;;;;;5005674;28;20482;-76
2022/03/30 12:58:18;;;;;;;19.75;8.38;;;614.70;1049.60;;;;;;4992935;28;20030;-76
2022/03/30 13:00:49;;;;;;;45.00;9.13;;;614.60;1049.60;;;;;;4986226;28;20138;-76
2022/03/30 13:03:16;;;;;;;18.35;7.78;;;614.90;1049.60;;;;;;4962392;28;20121;-76
2022/03/30 13:05:44;;;;;;;22.73;9.85;;;614.50;1049.60;;;;;;4978737;28;20030;-77
2022/03/30 13:08:11;;;;;;;19.08;8.65;;;614.90;1049.60;;;;;;4974203;28;20054;-77
2022/03/30 13:11:00;;;;;;;20.23;8.38;;;614.90;1049.60;;;;;;4991661;28;20036;-77
2022/03/30 13:13:48;;;;;;;19.67;9.27;;;614.60;1075.20;;;;;;4981366;28;20029;-77
2022/03/30 13:16:18;;;;;;;20.95;10.77;;;614.60;1075.20;;;;;;5000360;28;20034;-76
2022/03/30 13:19:00;;;;;;;19.20;8.18;;;614.50;1049.60;;;;;;5003821;28;20042;-76
2022/03/30 13:21:36;;;;;;;22.25;9.23;;;614.40;1075.20;;;;;;4970658;28;20047;-76
2022/03/30 13:24:30;;;;;;;15.55;7.78;;;589.60;1075.20;;;;;;4987548;28;20068;-77
2022/03/30 13:26:57;;;;;;;17.90;8.73;;;589.60;1049.60;;;;;;5010269;28;20034;-77
2022/03/30 13:29:24;;;;;;;18.63;10.55;;;589.60;1075.20;;;;;;4993037;28;20037;-76
2022/03/30 13:31:50;;;;;;;26.35;9.15;;;589.60;1075.20;;;;;;4994619;28;20060;-77
2022/03/30 13:34:18;;;;;;;18.17;9.13;;;589.30;1075.20;;;;;;5003447;28;20474;-76
2022/03/30 13:36:44;;;;;;;15.27;8.88;;;589.70;1075.20;;;;;;4987780;28;20088;-75
2022/03/30 13:39:11;;;;;;;24.17;10.60;;;589.60;1075.20;;;;;;4997727;28;20026;-75
2022/03/30 13:41:37;;;;;;;13.13;7.88;;;614.40;1049.60;;;;;;4995078;28;20036;-75
2022/03/30 13:44:04;;;;;;;20.38;9.70;;;589.70;1049.60;;;;;;5013699;28;20033;-74
2022/03/30 13:46:30;;;;;;;14.73;8.65;;;589.40;1075.20;;;;;;4993811;28;20068;-75
2022/03/30 13:48:56;;;;;;;22.58;8.30;;;589.40;1075.20;;;;;;5005640;28;20510;-74
2022/03/30 13:51:22;;;;;;;24.33;10.30;;;589.30;1075.20;;;;;;4989045;28;20048;-74
2022/03/30 13:53:50;;;;;;;15.55;7.50;;;589.30;1075.20;;;;;;5006642;28;20030;-74
2022/03/30 13:56:17;;;;;;;15.25;8.45;;;589.50;1075.20;;;;;;4987871;28;20429;-74
2022/03/30 13:58:44;;;;;;;15.10;7.85;;;589.50;1075.20;;;;;;5010198;28;20041;-74
2022/03/30 14:01:11;;;;;;;15.70;7.68;;;589.50;1075.20;;;;;;4995069;28;20037;-74
2022/03/30 14:03:37;;;;;;;20.65;8.05;;;589.40;1075.20;;;;;;5010407;28;20041;-74